createdAt,value
2023-04-12T00:00:37.391Z,2.50
2023-04-12T00:03:07.946Z,2.25
2023-04-12T00:05:36.573Z,2.50
2023-04-12T00:08:05.334Z,2.10
2023-04-12T00:10:34.662Z,2.55
2023-04-12T00:13:02.749Z,2.40
2023-04-12T00:15:31.311Z,2.95
2023-04-12T00:17:59.342Z,2.83
2023-04-12T00:20:27.798Z,2.17
2023-04-12T00:22:57.636Z,2.65
2023-04-12T00:25:26.387Z,2.65
2023-04-12T00:27:56.310Z,3.08
2023-04-12T00:30:24.667Z,3.15
2023-04-12T00:32:52.884Z,3.22
2023-04-12T00:35:20.813Z,2.33
2023-04-12T00:37:48.998Z,3.00
2023-04-12T00:40:17.071Z,2.47
2023-04-12T00:42:45.019Z,3.15
2023-04-12T00:45:15.286Z,2.47
2023-04-12T00:47:44.360Z,2.78
2023-04-12T00:50:13.009Z,2.25
2023-04-12T00:52:41.587Z,2.17
2023-04-12T00:55:10.599Z,2.40
2023-04-12T00:57:40.080Z,2.72
2023-04-12T01:00:12.740Z,2.28
2023-04-12T01:02:42.716Z,2.55
2023-04-12T01:05:14.861Z,1.95
2023-04-12T01:07:51.621Z,1.98
2023-04-12T01:10:28.205Z,2.30
2023-04-12T01:13:04.169Z,1.70
2023-04-12T01:15:33.741Z,2.40
2023-04-12T01:18:11.139Z,1.90
2023-04-12T01:20:44.641Z,1.88
2023-04-12T01:23:50.496Z,1.73
2023-04-12T01:26:33.316Z,1.85
2023-04-12T01:31:34.273Z,1.92
2023-04-12T01:34:04.479Z,1.60
2023-04-12T01:36:32.761Z,2.10
2023-04-12T01:39:04.702Z,1.60
2023-04-12T01:41:33.822Z,1.98
2023-04-12T01:44:01.633Z,2.08
2023-04-12T01:46:32.651Z,1.88
2023-04-12T01:49:00.838Z,1.88
2023-04-12T01:51:36.637Z,1.63
2023-04-12T01:54:11.604Z,1.73
2023-04-12T01:56:42.011Z,1.75
2023-04-12T01:59:11.227Z,2.00
2023-04-12T02:01:40.760Z,1.98
2023-04-12T02:04:09.786Z,2.08
2023-04-12T02:06:37.946Z,1.88
2023-04-12T02:09:06.876Z,1.90
2023-04-12T02:11:34.976Z,1.98
2023-04-12T02:14:03.419Z,2.00
2023-04-12T02:16:32.535Z,1.98
2023-04-12T02:19:04.070Z,2.17
2023-04-12T02:21:41.203Z,1.77
2023-04-12T02:24:09.852Z,2.28
2023-04-12T02:26:38.434Z,2.33
2023-04-12T02:29:10.566Z,2.03
2023-04-12T02:31:39.392Z,2.03
2023-04-12T02:34:13.439Z,2.00
2023-04-12T02:36:48.338Z,1.90
2023-04-12T02:39:18.588Z,1.95
2023-04-12T02:41:48.489Z,2.30
2023-04-12T02:44:17.177Z,1.77
2023-04-12T02:46:53.327Z,2.15
2023-04-12T02:49:22.676Z,1.73
2023-04-12T02:51:50.904Z,2.22
2023-04-12T02:54:23.131Z,1.75
2023-04-12T02:56:55.192Z,2.17
2023-04-12T02:59:45.230Z,1.73
2023-04-12T03:02:17.983Z,2.08
2023-04-12T03:04:51.177Z,2.15
2023-04-12T03:07:24.306Z,1.90
2023-04-12T03:09:55.505Z,2.03
2023-04-12T03:12:25.715Z,1.98
2023-04-12T03:15:05.713Z,1.75
2023-04-12T03:17:33.818Z,2.00
2023-04-12T03:20:09.846Z,1.77
2023-04-12T03:22:40.999Z,2.15
2023-04-12T03:25:12.951Z,2.05
2023-04-12T03:27:47.125Z,2.05
2023-04-12T03:30:18.358Z,1.88
2023-04-12T03:32:46.968Z,2.40
2023-04-12T03:35:16.811Z,1.95
2023-04-12T03:37:45.127Z,1.92
2023-04-12T03:40:14.317Z,1.63
2023-04-12T03:42:48.358Z,1.92
2023-04-12T03:45:16.913Z,1.65
2023-04-12T03:47:50.863Z,1.80
2023-04-12T03:50:23.719Z,1.48
2023-04-12T03:52:56.900Z,1.70
2023-04-12T03:55:31.317Z,2.03
2023-04-12T03:58:01.357Z,1.60
2023-04-12T04:00:34.739Z,1.65
2023-04-12T04:03:10.227Z,2.10
2023-04-12T04:05:46.159Z,1.90
2023-04-12T04:08:15.805Z,2.05
2023-04-12T04:10:52.083Z,1.88
2023-04-12T04:13:22.547Z,1.80
2023-04-12T04:16:01.092Z,1.63
2023-04-12T04:18:29.675Z,1.60
2023-04-12T04:20:59.768Z,1.83
2023-04-12T04:23:30.819Z,1.50
2023-04-12T04:26:05.282Z,1.83
2023-04-12T04:28:35.289Z,1.63
2023-04-12T04:31:06.189Z,1.90
2023-04-12T04:33:37.752Z,1.80
2023-04-12T04:36:09.348Z,1.75
2023-04-12T04:38:40.521Z,1.83
2023-04-12T04:41:17.619Z,1.55
2023-04-12T04:43:52.424Z,1.90
2023-04-12T04:46:22.149Z,1.95
2023-04-12T04:48:51.823Z,1.83
2023-04-12T04:51:21.276Z,1.80
2023-04-12T04:53:49.300Z,1.80
2023-04-12T04:56:18.575Z,1.92
2023-04-12T04:58:51.138Z,2.00
2023-04-12T05:01:20.829Z,2.10
2023-04-12T05:03:51.943Z,1.73
2023-04-12T05:06:24.393Z,1.90
2023-04-12T05:08:53.364Z,1.70
2023-04-12T05:11:23.129Z,1.98
2023-04-12T05:13:52.300Z,2.05
2023-04-12T05:16:23.384Z,1.95
2023-04-12T05:18:51.473Z,1.75
2023-04-12T05:21:19.808Z,1.65
2023-04-12T05:23:50.032Z,1.80
2023-04-12T05:26:18.302Z,1.70
2023-04-12T05:28:49.838Z,2.10
2023-04-12T05:31:21.081Z,1.90
2023-04-12T05:33:49.596Z,2.00
2023-04-12T05:36:18.134Z,1.73
2023-04-12T05:38:46.862Z,1.90
2023-04-12T05:41:17.458Z,1.83
2023-04-12T05:43:45.494Z,2.30
2023-04-12T05:46:13.546Z,1.95
2023-04-12T05:48:43.036Z,1.92
2023-04-12T05:51:10.902Z,2.05
2023-04-12T05:53:38.979Z,1.77
2023-04-12T05:56:09.045Z,1.80
2023-04-12T05:58:38.346Z,1.83
2023-04-12T06:01:07.005Z,1.75
2023-04-12T06:03:35.202Z,2.00
2023-04-12T06:06:09.938Z,1.80
2023-04-12T06:08:38.300Z,1.95
2023-04-12T06:11:08.221Z,2.13
2023-04-12T06:13:38.159Z,1.90
2023-04-12T06:16:07.088Z,1.90
2023-04-12T06:18:35.325Z,2.17
2023-04-12T06:21:04.709Z,1.85
2023-04-12T06:23:32.894Z,1.90
2023-04-12T06:26:01.170Z,2.00
2023-04-12T06:28:29.452Z,2.00
2023-04-12T06:30:59.006Z,2.30
2023-04-12T06:33:28.718Z,2.35
2023-04-12T06:35:56.772Z,2.13
2023-04-12T06:38:24.508Z,3.38
2023-04-12T06:40:52.532Z,2.05
2023-04-12T06:43:20.561Z,2.22
2023-04-12T06:45:49.763Z,1.90
2023-04-12T06:48:19.167Z,2.05
2023-04-12T06:50:47.410Z,2.00
2023-04-12T06:53:15.587Z,2.95
2023-04-12T06:55:43.756Z,2.75
2023-04-12T06:58:11.896Z,2.00
2023-04-12T07:00:40.020Z,2.63
2023-04-12T07:03:10.262Z,1.90
2023-04-12T07:05:40.485Z,2.65
2023-04-12T07:08:10.057Z,2.10
2023-04-12T07:10:38.256Z,2.10
2023-04-12T07:13:08.293Z,2.47
2023-04-12T07:15:36.504Z,2.22
2023-04-12T07:18:04.848Z,2.42
2023-04-12T07:20:32.780Z,2.40
2023-04-12T07:23:02.280Z,2.38
2023-04-12T07:25:30.113Z,2.92
2023-04-12T07:27:58.128Z,2.40
2023-04-12T07:30:26.482Z,2.80
2023-04-12T07:33:05.223Z,3.25
2023-04-12T07:35:41.122Z,3.67
2023-04-12T07:38:10.507Z,3.50
2023-04-12T07:40:38.470Z,2.53
2023-04-12T07:43:06.766Z,8.00
2023-04-12T07:45:38.155Z,4.38
2023-04-12T07:48:06.930Z,2.80
2023-04-12T07:50:34.880Z,3.97
2023-04-12T07:53:22.718Z,3.45
2023-04-12T07:55:51.463Z,3.50
2023-04-12T07:58:20.136Z,3.40
2023-04-12T08:00:48.972Z,3.22
2023-04-12T08:03:18.635Z,3.45
2023-04-12T08:05:49.604Z,3.13
2023-04-12T08:08:17.681Z,3.15
2023-04-12T08:10:46.912Z,3.78
2023-04-12T08:13:14.990Z,3.10
2023-04-12T08:15:43.763Z,3.22
2023-04-12T08:18:12.469Z,3.35
2023-04-12T08:20:41.735Z,3.70
2023-04-12T08:23:09.650Z,3.92
2023-04-12T08:25:37.648Z,3.08
2023-04-12T08:28:08.411Z,3.20
2023-04-12T08:30:36.904Z,3.13
2023-04-12T08:33:05.036Z,3.17
2023-04-12T08:35:33.080Z,3.78
2023-04-12T08:38:06.765Z,3.42
2023-04-12T08:40:34.994Z,3.45
2023-04-12T08:43:04.454Z,3.55
2023-04-12T08:45:35.601Z,3.30
2023-04-12T08:48:04.255Z,3.55
2023-04-12T08:50:32.639Z,4.10
2023-04-12T08:53:00.806Z,3.80
2023-04-12T08:55:28.549Z,3.28
2023-04-12T08:57:56.985Z,3.67
2023-04-12T09:00:25.850Z,4.38
2023-04-12T09:02:55.344Z,4.22
2023-04-12T09:05:29.740Z,3.70
2023-04-12T09:07:58.008Z,3.90
2023-04-12T09:10:33.602Z,3.75
2023-04-12T09:13:01.641Z,4.50
2023-04-12T09:15:29.644Z,5.10
2023-04-12T09:18:09.967Z,4.43
2023-04-12T09:20:38.889Z,3.60
2023-04-12T09:23:20.318Z,3.67
2023-04-12T09:25:51.934Z,3.80
2023-04-12T09:28:25.950Z,3.78
2023-04-12T09:30:55.384Z,3.58
2023-04-12T09:33:34.261Z,4.13
2023-04-12T09:36:03.665Z,4.00
2023-04-12T09:38:31.812Z,4.00
2023-04-12T09:41:19.643Z,3.13
2023-04-12T09:43:48.671Z,3.55
2023-04-12T09:46:16.893Z,3.30
2023-04-12T09:48:52.280Z,4.00
2023-04-12T09:51:28.539Z,3.42
2023-04-12T09:54:01.421Z,3.45
2023-04-12T09:56:31.002Z,3.65
2023-04-12T09:59:02.777Z,3.70
2023-04-12T10:01:31.780Z,3.47
2023-04-12T10:04:01.407Z,4.25
2023-04-12T10:06:29.498Z,4.07
2023-04-12T10:08:57.865Z,4.13
2023-04-12T10:11:27.710Z,3.75
2023-04-12T10:13:58.105Z,4.90
2023-04-12T10:16:27.714Z,3.30
2023-04-12T10:18:56.432Z,3.70
2023-04-12T10:21:26.224Z,3.92
2023-04-12T10:23:54.121Z,3.95
2023-04-12T10:26:22.125Z,3.20
2023-04-12T10:29:26.444Z,3.70
2023-04-12T10:31:54.873Z,3.70
2023-04-12T10:34:28.744Z,3.85
2023-04-12T10:36:59.076Z,3.78
2023-04-12T10:39:38.532Z,3.17
2023-04-12T10:42:27.852Z,4.07
2023-04-12T10:45:00.860Z,4.45
2023-04-12T10:48:03.916Z,3.58
2023-04-12T10:50:33.029Z,3.33
2023-04-12T10:53:25.280Z,3.85
2023-04-12T10:55:53.624Z,3.55
2023-04-12T10:58:59.041Z,3.20
2023-04-12T11:01:31.561Z,3.42
2023-04-12T11:04:27.115Z,3.92
2023-04-12T11:07:13.554Z,3.78
2023-04-12T11:10:03.075Z,3.65
2023-04-12T11:12:38.081Z,3.20
2023-04-12T11:15:07.204Z,4.15
2023-04-12T11:17:54.974Z,3.00
2023-04-12T11:20:23.397Z,3.63
2023-04-12T11:22:51.909Z,4.15
2023-04-12T11:25:21.327Z,3.92
2023-04-12T11:27:53.481Z,7.43
2023-04-12T11:30:23.536Z,5.32
2023-04-12T11:32:51.756Z,4.10
2023-04-12T11:35:24.372Z,3.50
2023-04-12T11:37:52.600Z,3.35
2023-04-12T11:40:23.478Z,4.30
2023-04-12T11:42:51.620Z,4.00
2023-04-12T11:45:20.854Z,3.63
2023-04-12T11:47:48.928Z,3.17
2023-04-12T11:50:30.593Z,2.92
2023-04-12T11:53:11.315Z,3.35
2023-04-12T11:55:40.785Z,2.65
2023-04-12T11:58:08.836Z,2.83
2023-04-12T12:00:37.034Z,2.13
2023-04-12T12:03:08.368Z,3.08
2023-04-12T12:05:39.191Z,3.63
2023-04-12T12:08:07.948Z,2.55
2023-04-12T12:10:46.444Z,3.47
2023-04-12T12:13:22.021Z,2.65
2023-04-12T12:15:52.911Z,2.60
2023-04-12T12:18:21.233Z,2.95
2023-04-12T12:20:50.782Z,2.42
2023-04-12T12:23:30.217Z,2.20
2023-04-12T12:26:14.399Z,2.78
2023-04-12T12:28:51.818Z,2.50
2023-04-12T12:31:21.536Z,2.53
2023-04-12T12:33:49.920Z,2.80
2023-04-12T12:36:19.728Z,2.53
2023-04-12T12:38:49.273Z,2.47
2023-04-12T12:41:18.565Z,2.28
2023-04-12T12:43:48.275Z,2.17
2023-04-12T12:46:17.630Z,1.70
2023-04-12T12:48:46.044Z,2.03
2023-04-12T12:51:17.810Z,1.92
2023-04-12T12:53:45.759Z,2.42
2023-04-12T12:56:14.868Z,2.28
2023-04-12T12:58:43.130Z,2.60
2023-04-12T13:01:12.482Z,2.97
2023-04-12T13:03:40.833Z,2.25
2023-04-12T13:06:11.652Z,2.67
2023-04-12T13:08:39.564Z,2.88
2023-04-12T13:11:08.432Z,2.45
2023-04-12T13:13:36.639Z,2.38
2023-04-12T13:16:05.109Z,2.20
2023-04-12T13:18:34.390Z,1.98
2023-04-12T13:21:02.301Z,1.95
2023-04-12T13:23:30.334Z,2.35
2023-04-12T13:25:58.238Z,2.55
2023-04-12T13:28:26.325Z,2.38
2023-04-12T13:30:54.178Z,1.83
2023-04-12T13:33:22.518Z,2.47
2023-04-12T13:35:52.200Z,1.83
2023-04-12T13:38:20.058Z,1.95
2023-04-12T13:40:47.904Z,1.70
2023-04-12T13:43:16.924Z,2.28
2023-04-12T13:45:44.946Z,1.88
2023-04-12T13:48:13.014Z,1.58
2023-04-12T13:50:41.119Z,1.85
2023-04-12T13:53:10.285Z,1.98
2023-04-12T13:55:38.613Z,1.60
2023-04-12T13:58:06.538Z,1.70
2023-04-12T14:00:34.544Z,1.63
2023-04-12T14:03:02.731Z,1.80
2023-04-12T14:05:30.713Z,1.75
2023-04-12T14:07:58.525Z,1.88
2023-04-12T14:10:27.971Z,1.40
2023-04-12T14:12:55.863Z,1.85
2023-04-12T14:15:23.904Z,0.95
2023-04-12T14:17:52.173Z,1.00
2023-04-12T14:20:20.413Z,1.42
2023-04-12T14:22:48.479Z,1.30
2023-04-12T14:25:16.474Z,1.30
2023-04-12T14:27:46.484Z,1.30
2023-04-12T14:30:16.365Z,1.35
2023-04-12T14:32:47.302Z,1.42
2023-04-12T14:35:16.044Z,1.13
2023-04-12T14:37:43.983Z,1.00
2023-04-12T14:40:12.491Z,1.40
2023-04-12T14:42:40.425Z,0.80
2023-04-12T14:45:12.087Z,1.92
2023-04-12T14:47:40.723Z,1.30
2023-04-12T14:50:09.499Z,1.48
2023-04-12T14:52:37.367Z,1.27
2023-04-12T14:55:05.713Z,1.73
2023-04-12T14:57:34.816Z,1.40
2023-04-12T15:00:02.840Z,1.23
2023-04-12T15:02:32.547Z,1.10
2023-04-12T15:05:04.286Z,1.02
2023-04-12T15:07:32.405Z,1.17
2023-04-12T15:10:00.726Z,1.23
2023-04-12T15:12:28.951Z,1.08
2023-04-12T15:14:57.708Z,1.20
2023-04-12T15:17:25.798Z,2.00
2023-04-12T15:19:55.114Z,1.35
2023-04-12T15:22:25.866Z,1.48
2023-04-12T15:24:53.984Z,1.40
2023-04-12T15:27:21.909Z,1.52
2023-04-12T15:29:50.229Z,1.92
2023-04-12T15:32:18.235Z,1.60
2023-04-12T15:34:46.258Z,1.60
2023-04-12T15:37:15.963Z,1.23
2023-04-12T15:39:44.113Z,1.30
2023-04-12T15:42:12.259Z,1.20
2023-04-12T15:44:40.188Z,1.10
2023-04-12T15:47:11.417Z,0.70
2023-04-12T15:49:40.448Z,1.25
2023-04-12T15:52:08.530Z,1.20
2023-04-12T15:54:43.741Z,1.00
2023-04-12T15:57:12.312Z,0.70
2023-04-12T15:59:42.123Z,1.10
2023-04-12T16:02:10.608Z,0.77
2023-04-12T16:04:39.452Z,1.42
2023-04-12T16:07:07.631Z,1.10
2023-04-12T16:09:35.665Z,0.82
2023-04-12T16:12:05.491Z,1.13
2023-04-12T16:14:33.642Z,0.90
2023-04-12T16:17:02.029Z,0.90
2023-04-12T16:19:30.110Z,0.85
2023-04-12T16:21:58.076Z,0.93
2023-04-12T16:24:26.250Z,1.10
2023-04-12T16:26:54.176Z,1.35
2023-04-12T16:29:23.593Z,1.20
2023-04-12T16:31:52.247Z,1.10
2023-04-12T16:34:22.065Z,1.00
2023-04-12T16:36:51.264Z,1.35
2023-04-12T16:39:19.329Z,1.13
2023-04-12T16:41:47.455Z,0.70
2023-04-12T16:44:18.696Z,1.30
2023-04-12T16:46:49.018Z,0.85
2023-04-12T16:49:19.649Z,1.00
2023-04-12T16:51:48.280Z,0.90
2023-04-12T16:54:16.358Z,1.23
2023-04-12T16:56:44.403Z,1.27
2023-04-12T16:59:12.524Z,0.95
2023-04-12T17:01:40.609Z,1.10
2023-04-12T17:04:10.611Z,1.27
2023-04-12T17:06:39.698Z,1.10
2023-04-12T17:09:09.654Z,1.25
2023-04-12T17:11:37.755Z,1.13
2023-04-12T17:14:05.768Z,1.20
2023-04-12T17:16:34.087Z,1.50
2023-04-12T17:19:02.050Z,1.30
2023-04-12T17:21:40.854Z,1.63
2023-04-12T17:24:09.134Z,1.15
2023-04-12T17:26:37.329Z,1.70
2023-04-12T17:29:07.021Z,1.15
2023-04-12T17:31:35.811Z,1.60
2023-04-12T17:34:04.205Z,1.35
2023-04-12T17:36:33.938Z,1.30
2023-04-12T17:39:04.713Z,1.58
2023-04-12T17:41:32.814Z,1.50
2023-04-12T17:44:00.660Z,1.35
2023-04-12T17:46:28.841Z,1.50
2023-04-12T17:48:58.144Z,1.35
2023-04-12T17:51:26.926Z,1.77
2023-04-12T17:53:58.459Z,1.73
2023-04-12T17:56:26.773Z,1.60
2023-04-12T17:58:55.637Z,1.65
2023-04-12T18:01:23.827Z,1.90
2023-04-12T18:03:52.013Z,2.20
2023-04-12T18:06:20.966Z,4.68
2023-04-12T18:08:48.736Z,5.40
2023-04-12T18:11:18.427Z,20.88
2023-04-12T18:13:46.586Z,16.42
2023-04-12T18:16:14.648Z,11.15
2023-04-12T18:18:42.579Z,14.07
2023-04-12T18:21:10.624Z,22.58
2023-04-12T18:23:38.596Z,13.02
2023-04-12T18:26:07.182Z,14.10
2023-04-12T18:28:37.492Z,25.17
2023-04-12T18:31:06.839Z,7.40
2023-04-12T18:33:34.821Z,3.75
2023-04-12T18:36:04.402Z,3.55
2023-04-12T18:38:32.751Z,3.33
2023-04-12T18:41:00.718Z,4.47
2023-04-12T18:43:28.777Z,7.15
2023-04-12T18:45:58.078Z,6.53
2023-04-12T18:48:28.458Z,4.15
2023-04-12T18:50:59.758Z,2.95
2023-04-12T18:53:27.727Z,5.40
2023-04-12T18:55:55.815Z,6.53
2023-04-12T18:58:25.219Z,3.80
2023-04-12T19:00:57.496Z,3.17
2023-04-12T19:03:28.145Z,3.28
2023-04-12T19:05:56.776Z,3.10
2023-04-12T19:08:25.463Z,3.00
2023-04-12T19:10:53.887Z,3.00
2023-04-12T19:13:21.760Z,3.20
2023-04-12T19:15:49.820Z,3.33
2023-04-12T19:18:19.281Z,2.95
2023-04-12T19:20:47.349Z,3.95
2023-04-12T19:23:15.292Z,3.95
2023-04-12T19:25:43.500Z,2.90
2023-04-12T19:28:11.988Z,3.67
2023-04-12T19:30:40.118Z,3.58
2023-04-12T19:33:12.157Z,3.65
2023-04-12T19:35:45.607Z,3.60
2023-04-12T19:38:15.537Z,3.67
2023-04-12T19:40:53.037Z,3.78
2023-04-12T19:43:22.084Z,3.80
2023-04-12T19:45:51.600Z,3.33
2023-04-12T19:48:21.772Z,3.63
2023-04-12T19:50:51.285Z,3.72
2023-04-12T19:53:21.554Z,3.53
2023-04-12T19:55:50.022Z,3.53
2023-04-12T19:58:20.622Z,3.05
2023-04-12T20:00:51.848Z,3.20
2023-04-12T20:03:19.971Z,4.05
2023-04-12T20:05:48.996Z,3.33
2023-04-12T20:08:22.851Z,3.70
2023-04-12T20:10:55.655Z,3.20
2023-04-12T20:13:26.396Z,3.70
2023-04-12T20:16:01.207Z,14.38
2023-04-12T20:18:36.806Z,13.35
2023-04-12T20:21:08.538Z,8.68
2023-04-12T20:23:41.741Z,8.93
2023-04-12T20:26:10.532Z,7.33
2023-04-12T20:28:40.056Z,13.55
2023-04-12T20:31:16.847Z,13.13
2023-04-12T20:33:45.889Z,11.23
2023-04-12T20:36:18.165Z,6.32
2023-04-12T20:38:51.262Z,8.40
2023-04-12T20:41:21.120Z,17.50
2023-04-12T20:43:55.500Z,12.93
2023-04-12T20:46:30.240Z,9.05
2023-04-12T20:49:05.272Z,4.28
2023-04-12T20:51:35.085Z,6.47
2023-04-12T20:54:04.618Z,5.97
2023-04-12T20:56:32.576Z,7.65
2023-04-12T20:59:02.499Z,6.65
2023-04-12T21:01:30.380Z,6.18
2023-04-12T21:03:59.617Z,6.10
2023-04-12T21:06:28.386Z,5.32
2023-04-12T21:08:56.520Z,6.65
2023-04-12T21:11:27.345Z,2.42
2023-04-12T21:13:55.545Z,5.05
2023-04-12T21:16:25.274Z,5.18
2023-04-12T21:18:53.389Z,7.90
2023-04-12T21:21:21.765Z,3.95
2023-04-12T21:23:51.607Z,7.07
2023-04-12T21:26:20.962Z,4.57
2023-04-12T21:28:50.241Z,8.35
2023-04-12T21:31:18.862Z,5.65
2023-04-12T21:33:46.727Z,5.82
2023-04-12T21:36:15.168Z,5.35
2023-04-12T21:38:43.023Z,11.55
2023-04-12T21:41:12.744Z,11.93
2023-04-12T21:43:40.829Z,11.50
2023-04-12T21:46:10.359Z,7.78
2023-04-12T21:48:38.242Z,9.68
2023-04-12T21:51:07.080Z,6.65
2023-04-12T21:53:35.035Z,5.50
2023-04-12T21:56:02.932Z,12.18
2023-04-12T21:58:32.467Z,4.70
2023-04-12T22:01:00.375Z,8.55
2023-04-12T22:03:30.023Z,3.15
2023-04-12T22:06:04.085Z,5.35
2023-04-12T22:08:34.327Z,7.78
2023-04-12T22:11:02.405Z,11.25
2023-04-12T22:13:30.790Z,7.03
2023-04-12T22:16:00.922Z,3.38
2023-04-12T22:18:31.755Z,3.10
2023-04-12T22:20:59.839Z,7.30
2023-04-12T22:23:27.753Z,4.65
2023-04-12T22:25:58.595Z,5.53
2023-04-12T22:28:26.620Z,5.38
2023-04-12T22:30:57.152Z,5.18
2023-04-12T22:33:25.158Z,5.18
2023-04-12T22:35:54.451Z,5.57
2023-04-12T22:38:22.357Z,12.05
2023-04-12T22:40:51.107Z,7.32
2023-04-12T22:43:21.128Z,2.88
2023-04-12T22:45:49.365Z,2.60
2023-04-12T22:48:17.493Z,5.00
2023-04-12T22:50:46.032Z,3.53
2023-04-12T22:53:15.909Z,4.28
2023-04-12T22:55:45.051Z,4.00
2023-04-12T22:58:13.477Z,4.63
2023-04-12T23:00:41.502Z,2.65
2023-04-12T23:03:10.914Z,2.67
2023-04-12T23:05:39.252Z,2.67
2023-04-12T23:08:07.268Z,1.27
2023-04-12T23:10:37.636Z,1.67
2023-04-12T23:13:07.100Z,1.30
2023-04-12T23:15:35.469Z,2.53
2023-04-12T23:18:03.890Z,1.40
2023-04-12T23:20:32.878Z,1.65
2023-04-12T23:23:00.807Z,1.73
2023-04-12T23:25:38.939Z,1.27
2023-04-12T23:28:12.967Z,2.45
2023-04-12T23:33:12.030Z,1.30
2023-04-12T23:35:41.618Z,1.00
2023-04-12T23:38:10.142Z,1.20
2023-04-12T23:40:38.310Z,1.45
2023-04-12T23:43:08.609Z,1.17
2023-04-12T23:45:38.148Z,1.00
2023-04-12T23:48:06.983Z,1.20
2023-04-12T23:50:35.127Z,1.10
2023-04-12T23:53:03.658Z,1.38
2023-04-12T23:55:31.883Z,1.35
2023-04-12T23:57:59.855Z,1.00
